createdAt,value
2019-02-25T00:00:41.273Z,2.94
2019-02-25T00:01:41.619Z,2.94
2019-02-25T00:02:41.793Z,2.98
2019-02-25T00:03:42.038Z,3.00
2019-02-25T00:04:42.292Z,3.01
2019-02-25T00:05:42.540Z,2.97
2019-02-25T00:06:42.801Z,2.95
2019-02-25T00:07:43.052Z,2.93
2019-02-25T00:08:43.347Z,2.87
2019-02-25T00:09:43.713Z,2.83
2019-02-25T00:10:43.813Z,2.72
2019-02-25T00:11:44.079Z,2.85
2019-02-25T00:12:44.351Z,2.76
2019-02-25T00:13:44.605Z,2.75
2019-02-25T00:14:44.837Z,2.80
2019-02-25T00:15:45.087Z,2.83
2019-02-25T00:16:45.590Z,2.83
2019-02-25T00:17:45.681Z,2.80
2019-02-25T00:18:45.868Z,2.90
2019-02-25T00:19:46.105Z,2.90
2019-02-25T00:20:46.355Z,2.88
2019-02-25T00:21:46.646Z,2.93
2019-02-25T00:22:46.851Z,3.00
2019-02-25T00:23:47.134Z,3.01
2019-02-25T00:24:47.370Z,2.97
2019-02-25T00:25:47.697Z,2.91
2019-02-25T00:26:47.884Z,2.85
2019-02-25T00:27:48.114Z,2.82
2019-02-25T00:28:48.362Z,2.83
2019-02-25T00:29:48.632Z,2.82
2019-02-25T00:30:48.882Z,2.87
2019-02-25T00:31:49.156Z,2.76
2019-02-25T00:32:49.400Z,2.73
2019-02-25T00:33:49.675Z,2.65
2019-02-25T00:34:49.883Z,2.68
2019-02-25T00:35:50.163Z,2.57
2019-02-25T00:36:50.431Z,2.55
2019-02-25T00:37:50.677Z,2.52
2019-02-25T00:38:50.925Z,2.40
2019-02-25T00:39:51.196Z,2.44
2019-02-25T00:40:51.435Z,2.39
2019-02-25T00:41:51.782Z,2.43
2019-02-25T00:42:52.007Z,2.44
2019-02-25T00:43:52.208Z,2.36
2019-02-25T00:44:52.476Z,2.51
2019-02-25T00:45:52.696Z,2.50
2019-02-25T00:46:52.985Z,2.52
2019-02-25T00:47:53.241Z,2.54
2019-02-25T00:48:53.475Z,2.55
2019-02-25T00:49:53.756Z,2.59
2019-02-25T00:50:54.098Z,2.57
2019-02-25T00:51:54.249Z,2.61
2019-02-25T00:52:54.488Z,2.61
2019-02-25T00:53:54.738Z,2.61
2019-02-25T00:54:55.003Z,2.72
2019-02-25T00:55:55.224Z,2.62
2019-02-25T00:56:55.516Z,2.55
2019-02-25T00:57:55.777Z,2.70
2019-02-25T00:58:56.144Z,2.69
2019-02-25T00:59:56.283Z,2.69
2019-02-25T01:00:56.508Z,2.75
2019-02-25T01:01:56.784Z,2.68
2019-02-25T01:02:57.051Z,2.77
2019-02-25T01:03:57.299Z,2.69
2019-02-25T01:04:57.569Z,2.73
2019-02-25T01:05:57.802Z,2.72
2019-02-25T01:06:58.115Z,2.68
2019-02-25T01:07:58.351Z,2.68
2019-02-25T01:08:58.566Z,2.61
2019-02-25T01:09:58.838Z,2.57
2019-02-25T01:10:59.074Z,2.47
2019-02-25T01:11:59.350Z,2.54
2019-02-25T01:12:59.588Z,2.55
2019-02-25T01:13:59.822Z,2.54
2019-02-25T01:15:00.253Z,2.50
2019-02-25T01:16:00.320Z,2.43
2019-02-25T01:17:00.612Z,2.44
2019-02-25T01:18:00.855Z,2.52
2019-02-25T01:19:01.079Z,2.52
2019-02-25T01:20:01.374Z,2.43
2019-02-25T01:21:01.624Z,2.47
2019-02-25T01:22:01.906Z,2.47
2019-02-25T01:23:02.158Z,2.55
2019-02-25T01:24:02.452Z,2.57
2019-02-25T01:25:02.656Z,2.57
2019-02-25T01:26:02.888Z,2.54
2019-02-25T01:27:03.162Z,2.65
2019-02-25T01:28:03.404Z,2.59
2019-02-25T01:29:03.650Z,2.70
2019-02-25T01:30:03.907Z,2.68
2019-02-25T01:31:04.154Z,2.65
2019-02-25T01:32:04.553Z,2.52
2019-02-25T01:33:04.682Z,2.62
2019-02-25T01:34:04.915Z,2.59
2019-02-25T01:35:05.174Z,2.65
2019-02-25T01:36:05.425Z,2.65
2019-02-25T01:37:05.682Z,2.64
2019-02-25T01:38:05.967Z,2.61
2019-02-25T01:39:06.213Z,2.55
2019-02-25T01:40:06.563Z,2.55
2019-02-25T01:41:06.702Z,2.44
2019-02-25T01:42:06.977Z,2.46
2019-02-25T01:43:07.270Z,2.59
2019-02-25T01:44:07.508Z,2.55
2019-02-25T01:45:07.774Z,2.58
2019-02-25T01:46:07.996Z,2.54
2019-02-25T01:47:08.269Z,2.54
2019-02-25T01:48:08.826Z,2.55
2019-02-25T01:49:08.761Z,2.51
2019-02-25T01:50:09.046Z,2.54
2019-02-25T01:51:09.265Z,2.57
2019-02-25T01:52:09.504Z,2.62
2019-02-25T01:53:09.802Z,2.62
2019-02-25T01:54:10.291Z,2.52
2019-02-25T01:55:10.321Z,2.51
2019-02-25T01:56:10.594Z,2.43
2019-02-25T01:57:10.800Z,2.41
2019-02-25T01:58:11.081Z,2.37
2019-02-25T01:59:11.318Z,2.41
2019-02-25T02:00:11.605Z,2.23
2019-02-25T02:01:11.840Z,2.21
2019-02-25T02:02:12.095Z,2.14
2019-02-25T02:03:12.386Z,2.10
2019-02-25T02:04:12.616Z,2.15
2019-02-25T02:05:12.933Z,2.08
2019-02-25T02:06:13.111Z,2.05
2019-02-25T02:07:13.356Z,2.01
2019-02-25T02:08:13.634Z,1.98
2019-02-25T02:09:13.845Z,1.95
2019-02-25T02:10:14.142Z,2.08
2019-02-25T02:11:14.382Z,2.08
2019-02-25T02:12:14.640Z,2.12
2019-02-25T02:13:15.063Z,2.05
2019-02-25T02:14:15.129Z,2.21
2019-02-25T02:15:15.409Z,2.19
2019-02-25T02:16:15.661Z,2.15
2019-02-25T02:17:15.919Z,2.21
2019-02-25T02:18:16.218Z,2.05
2019-02-25T02:19:16.431Z,2.10
2019-02-25T02:20:16.696Z,2.05
2019-02-25T02:21:16.998Z,2.07
2019-02-25T02:22:17.184Z,1.89
2019-02-25T02:23:17.462Z,2.00
2019-02-25T02:24:17.684Z,1.86
2019-02-25T02:25:17.957Z,1.86
2019-02-25T02:26:18.186Z,1.88
2019-02-25T02:27:18.447Z,1.82
2019-02-25T02:28:18.739Z,1.81
2019-02-25T02:29:18.995Z,1.85
2019-02-25T02:30:19.199Z,1.74
2019-02-25T02:31:19.441Z,1.82
2019-02-25T02:32:19.679Z,1.78
2019-02-25T02:33:20.005Z,1.74
2019-02-25T02:34:20.200Z,1.88
2019-02-25T02:35:20.464Z,1.86
2019-02-25T02:36:20.701Z,1.84
2019-02-25T02:37:21.003Z,1.97
2019-02-25T02:38:21.269Z,2.01
2019-02-25T02:39:21.469Z,2.03
2019-02-25T02:40:21.743Z,1.93
2019-02-25T02:41:21.971Z,1.95
2019-02-25T02:42:22.223Z,2.00
2019-02-25T02:43:22.519Z,1.97
2019-02-25T02:44:22.714Z,1.95
2019-02-25T02:45:23.022Z,1.84
2019-02-25T02:46:23.379Z,1.81
2019-02-25T02:47:23.496Z,1.85
2019-02-25T02:48:23.774Z,1.88
2019-02-25T02:49:23.985Z,1.84
2019-02-25T02:50:24.256Z,1.93
2019-02-25T02:51:24.508Z,1.95
2019-02-25T02:52:24.764Z,1.84
2019-02-25T02:53:25.057Z,1.97
2019-02-25T02:54:25.418Z,1.95
2019-02-25T02:55:25.524Z,1.89
2019-02-25T02:56:25.788Z,1.82
2019-02-25T02:57:26.048Z,1.85
2019-02-25T02:58:26.318Z,1.84
2019-02-25T02:59:26.552Z,1.85
2019-02-25T03:00:26.812Z,1.86
2019-02-25T03:01:27.095Z,1.86
2019-02-25T03:02:27.382Z,1.76
2019-02-25T03:03:27.584Z,1.71
2019-02-25T03:04:27.852Z,1.78
2019-02-25T03:05:28.065Z,1.81
2019-02-25T03:06:28.346Z,1.75
2019-02-25T03:07:28.583Z,1.74
2019-02-25T03:08:28.853Z,1.81
2019-02-25T03:09:29.102Z,1.78
2019-02-25T03:10:29.391Z,1.75
2019-02-25T03:11:29.590Z,1.81
2019-02-25T03:12:29.839Z,1.88
2019-02-25T03:13:30.110Z,1.85
2019-02-25T03:14:30.347Z,1.93
2019-02-25T03:15:30.592Z,2.03
2019-02-25T03:16:30.871Z,1.93
2019-02-25T03:17:31.099Z,2.01
2019-02-25T03:18:31.409Z,1.97
2019-02-25T03:19:31.672Z,1.92
2019-02-25T03:20:31.870Z,1.85
2019-02-25T03:21:32.142Z,1.81
2019-02-25T03:22:32.359Z,1.82
2019-02-25T03:23:32.647Z,1.84
2019-02-25T03:24:32.899Z,1.84
2019-02-25T03:25:33.150Z,1.85
2019-02-25T03:26:33.446Z,1.97
2019-02-25T03:27:33.754Z,2.05
2019-02-25T03:28:33.931Z,2.05
2019-02-25T03:29:34.181Z,2.03
2019-02-25T03:30:34.417Z,2.04
2019-02-25T03:31:34.691Z,2.07
2019-02-25T03:32:34.925Z,2.04
2019-02-25T03:33:35.428Z,1.89
2019-02-25T03:34:35.434Z,1.85
2019-02-25T03:35:35.771Z,1.86
2019-02-25T03:36:35.949Z,1.85
2019-02-25T03:37:36.185Z,1.84
2019-02-25T03:38:36.451Z,1.89
2019-02-25T03:39:36.701Z,1.82
2019-02-25T03:40:36.970Z,1.86
2019-02-25T03:41:37.239Z,1.81
2019-02-25T03:42:37.476Z,1.82
2019-02-25T03:43:37.819Z,1.76
2019-02-25T03:44:37.958Z,1.84
2019-02-25T03:45:38.229Z,1.82
2019-02-25T03:46:38.493Z,1.68
2019-02-25T03:47:38.732Z,1.70
2019-02-25T03:48:39.000Z,1.67
2019-02-25T03:49:39.244Z,1.64
2019-02-25T03:50:39.550Z,1.52
2019-02-25T03:51:39.810Z,1.57
2019-02-25T03:52:39.979Z,1.56
2019-02-25T03:53:40.247Z,1.60
2019-02-25T03:54:40.497Z,1.50
2019-02-25T03:55:40.744Z,1.60
2019-02-25T03:56:41.016Z,1.52
2019-02-25T03:57:41.257Z,1.48
2019-02-25T03:58:41.510Z,1.32
2019-02-25T03:59:41.837Z,1.36
2019-02-25T04:00:42.088Z,1.27
2019-02-25T04:01:42.293Z,1.28
2019-02-25T04:02:42.540Z,1.28
2019-02-25T04:03:42.813Z,1.36
2019-02-25T04:04:43.093Z,1.34
2019-02-25T04:05:43.334Z,1.36
2019-02-25T04:06:43.605Z,1.45
2019-02-25T04:07:43.831Z,1.38
2019-02-25T04:08:44.164Z,1.34
2019-02-25T04:09:44.398Z,1.34
2019-02-25T04:10:44.622Z,1.30
2019-02-25T04:11:44.897Z,1.32
2019-02-25T04:12:45.130Z,1.24
2019-02-25T04:13:45.380Z,1.30
2019-02-25T04:14:45.653Z,1.09
2019-02-25T04:15:45.884Z,1.20
2019-02-25T04:16:46.311Z,1.16
2019-02-25T04:17:46.385Z,1.16
2019-02-25T04:18:46.649Z,1.21
2019-02-25T04:19:46.927Z,1.20
2019-02-25T04:20:47.155Z,1.20
2019-02-25T04:21:47.412Z,1.20
2019-02-25T04:22:47.656Z,1.21
2019-02-25T04:23:47.901Z,1.21
2019-02-25T04:24:48.247Z,1.24
2019-02-25T04:25:48.398Z,1.25
2019-02-25T04:26:48.692Z,1.24
2019-02-25T04:27:48.914Z,1.31
2019-02-25T04:28:49.150Z,1.31
2019-02-25T04:29:49.430Z,1.21
2019-02-25T04:30:49.670Z,1.21
2019-02-25T04:31:49.944Z,1.22
2019-02-25T04:32:50.237Z,1.22
2019-02-25T04:33:50.419Z,1.12
2019-02-25T04:34:50.680Z,1.16
2019-02-25T04:35:50.914Z,1.16
2019-02-25T04:36:51.197Z,1.06
2019-02-25T04:37:51.438Z,1.03
2019-02-25T04:38:51.689Z,1.13
2019-02-25T04:39:51.980Z,1.12
2019-02-25T04:40:52.206Z,1.14
2019-02-25T04:41:52.513Z,1.10
2019-02-25T04:42:52.699Z,1.07
2019-02-25T04:43:52.945Z,1.18
2019-02-25T04:44:53.245Z,1.20
2019-02-25T04:45:53.457Z,1.22
2019-02-25T04:46:53.714Z,1.31
2019-02-25T04:47:53.965Z,1.22
2019-02-25T04:48:54.232Z,1.21
2019-02-25T04:49:54.612Z,1.16
2019-02-25T04:50:54.709Z,1.18
2019-02-25T04:51:54.995Z,1.02
2019-02-25T04:52:55.245Z,1.06
2019-02-25T04:53:55.499Z,1.13
2019-02-25T04:54:55.772Z,1.03
2019-02-25T04:55:56.002Z,0.96
2019-02-25T04:56:56.245Z,0.96
2019-02-25T04:57:56.635Z,0.89
2019-02-25T04:58:56.761Z,0.89
2019-02-25T04:59:57.045Z,0.92
2019-02-25T05:00:57.271Z,0.91
2019-02-25T05:01:57.495Z,0.84
2019-02-25T05:02:57.789Z,0.95
2019-02-25T05:03:58.055Z,0.96
2019-02-25T05:04:58.331Z,0.89
2019-02-25T05:05:58.601Z,0.86
2019-02-25T05:06:58.799Z,0.91
2019-02-25T05:07:59.056Z,0.88
2019-02-25T05:08:59.330Z,0.82
2019-02-25T05:09:59.611Z,0.81
2019-02-25T05:10:59.841Z,0.86
2019-02-25T05:12:00.084Z,0.81
2019-02-25T05:13:00.576Z,0.73
2019-02-25T05:14:00.634Z,0.70
2019-02-25T05:15:00.849Z,0.70
2019-02-25T05:16:01.085Z,0.71
2019-02-25T05:17:01.338Z,0.76
2019-02-25T05:18:01.607Z,0.73
2019-02-25T05:19:01.843Z,0.74
2019-02-25T05:20:02.133Z,0.71
2019-02-25T05:21:02.359Z,0.74
2019-02-25T05:22:02.645Z,0.73
2019-02-25T05:23:02.963Z,0.74
2019-02-25T05:24:03.134Z,0.70
2019-02-25T05:25:03.399Z,0.70
2019-02-25T05:26:03.642Z,0.63
2019-02-25T05:27:03.895Z,0.63
2019-02-25T05:28:04.168Z,0.67
2019-02-25T05:29:04.402Z,0.67
2019-02-25T05:30:04.693Z,0.67
2019-02-25T05:31:05.043Z,0.67
2019-02-25T05:32:05.160Z,0.55
2019-02-25T05:33:05.452Z,0.55
2019-02-25T05:34:05.662Z,0.48
2019-02-25T05:35:05.950Z,0.44
2019-02-25T05:36:06.152Z,0.39
2019-02-25T05:37:06.440Z,0.48
2019-02-25T05:38:06.725Z,0.45
2019-02-25T05:39:07.037Z,0.42
2019-02-25T05:40:07.214Z,0.31
2019-02-25T05:41:07.423Z,0.39
2019-02-25T05:42:07.701Z,0.45
2019-02-25T05:43:07.967Z,0.47
2019-02-25T05:44:08.567Z,0.47
2019-02-25T05:45:08.479Z,0.55
2019-02-25T05:46:08.706Z,0.59
2019-02-25T05:47:09.000Z,0.56
2019-02-25T05:48:09.220Z,0.55
2019-02-25T05:49:09.453Z,0.55
2019-02-25T05:50:09.736Z,0.52
2019-02-25T05:51:09.959Z,0.61
2019-02-25T05:52:10.217Z,0.51
2019-02-25T05:53:10.460Z,0.55
2019-02-25T05:54:10.705Z,0.63
2019-02-25T05:55:11.050Z,0.55
2019-02-25T05:56:11.201Z,0.51
2019-02-25T05:57:11.466Z,0.55
2019-02-25T05:58:11.748Z,0.49
2019-02-25T05:59:11.978Z,0.64
2019-02-25T06:00:12.256Z,0.63
2019-02-25T06:01:12.486Z,0.59
2019-02-25T06:02:12.732Z,0.64
2019-02-25T06:03:13.045Z,0.64
2019-02-25T06:04:13.343Z,0.66
2019-02-25T06:05:13.514Z,0.67
2019-02-25T06:06:13.770Z,0.61
2019-02-25T06:07:14.007Z,0.55
2019-02-25T06:08:14.276Z,0.61
2019-02-25T06:09:14.514Z,0.58
2019-02-25T06:10:14.752Z,0.66
2019-02-25T06:11:15.061Z,0.61
2019-02-25T06:12:15.410Z,0.68
2019-02-25T06:13:15.583Z,0.64
2019-02-25T06:14:15.806Z,0.63
2019-02-25T06:15:16.047Z,0.64
2019-02-25T06:16:16.348Z,0.59
2019-02-25T06:17:16.575Z,0.56
2019-02-25T06:18:16.860Z,0.56
2019-02-25T06:19:17.090Z,0.64
2019-02-25T06:20:17.457Z,0.64
2019-02-25T06:21:17.604Z,0.68
2019-02-25T06:22:17.831Z,0.59
2019-02-25T06:23:18.106Z,0.73
2019-02-25T06:24:18.354Z,0.73
2019-02-25T06:25:18.609Z,0.74
2019-02-25T06:26:18.860Z,0.77
2019-02-25T06:27:19.102Z,0.76
2019-02-25T06:28:19.444Z,0.73
2019-02-25T06:29:19.609Z,0.73
2019-02-25T06:30:19.880Z,0.70
2019-02-25T06:31:20.172Z,0.82
2019-02-25T06:32:20.358Z,0.71
2019-02-25T06:33:20.647Z,0.78
2019-02-25T06:34:20.881Z,0.81
2019-02-25T06:35:21.143Z,0.58
2019-02-25T06:36:21.466Z,0.66
2019-02-25T06:37:21.625Z,0.61
2019-02-25T06:38:21.879Z,0.58
2019-02-25T06:39:22.137Z,0.58
2019-02-25T06:40:22.469Z,0.63
2019-02-25T06:41:22.659Z,0.63
2019-02-25T06:42:22.899Z,0.71
2019-02-25T06:43:23.169Z,0.82
2019-02-25T06:44:23.421Z,0.71
2019-02-25T06:45:23.737Z,0.73
2019-02-25T06:46:23.949Z,0.78
2019-02-25T06:47:24.168Z,0.82
2019-02-25T06:48:24.435Z,0.89
2019-02-25T06:49:24.654Z,0.86
2019-02-25T06:50:24.927Z,0.91
2019-02-25T06:51:25.199Z,0.86
2019-02-25T06:52:25.659Z,0.96
2019-02-25T06:53:25.822Z,0.82
2019-02-25T06:54:25.920Z,1.06
2019-02-25T06:55:26.199Z,1.02
2019-02-25T06:56:26.472Z,1.09
2019-02-25T06:57:26.687Z,1.09
2019-02-25T06:58:26.970Z,1.10
2019-02-25T06:59:27.208Z,1.14
2019-02-25T07:00:27.444Z,1.21
2019-02-25T07:01:27.866Z,1.13
2019-02-25T07:02:27.953Z,1.22
2019-02-25T07:03:28.231Z,1.34
2019-02-25T07:04:28.465Z,1.60
2019-02-25T07:05:28.703Z,1.84
2019-02-25T07:06:29.006Z,1.92
2019-02-25T07:07:29.242Z,2.15
2019-02-25T07:08:29.494Z,2.43
2019-02-25T07:09:29.842Z,2.62
2019-02-25T07:10:29.985Z,2.77
2019-02-25T07:11:30.254Z,3.03
2019-02-25T07:12:30.480Z,3.16
2019-02-25T07:13:30.754Z,3.21
2019-02-25T07:14:31.020Z,3.41
2019-02-25T07:15:31.270Z,3.37
2019-02-25T07:16:31.553Z,3.56
2019-02-25T07:17:31.804Z,3.55
2019-02-25T07:18:32.033Z,3.53
2019-02-25T07:19:32.304Z,3.67
2019-02-25T07:20:32.560Z,3.73
2019-02-25T07:21:32.850Z,3.77
2019-02-25T07:22:33.071Z,3.81
2019-02-25T07:23:33.309Z,3.85
2019-02-25T07:24:33.588Z,3.86
2019-02-25T07:25:33.859Z,3.92
2019-02-25T07:26:34.246Z,4.09
2019-02-25T07:27:34.375Z,4.09
2019-02-25T07:28:36.588Z,4.14
2019-02-25T07:29:34.899Z,4.30
2019-02-25T07:30:35.137Z,4.38
2019-02-25T07:31:35.435Z,4.43
2019-02-25T07:32:35.646Z,4.40
2019-02-25T07:33:35.902Z,4.57
2019-02-25T07:34:36.314Z,4.52
2019-02-25T07:35:36.407Z,4.56
2019-02-25T07:36:36.701Z,4.58
2019-02-25T07:37:36.911Z,4.63
2019-02-25T07:38:39.385Z,4.64
2019-02-25T07:39:37.431Z,4.63
2019-02-25T07:40:37.682Z,4.68
2019-02-25T07:41:38.185Z,4.83
2019-02-25T07:42:38.295Z,4.84
2019-02-25T07:43:38.442Z,4.90
2019-02-25T07:44:38.716Z,4.97
2019-02-25T07:45:38.938Z,4.97
2019-02-25T07:46:39.241Z,5.01
2019-02-25T07:47:39.461Z,5.08
2019-02-25T07:48:39.714Z,5.15
2019-02-25T07:49:39.990Z,5.13
2019-02-25T07:50:47.010Z,5.20
2019-02-25T07:51:41.478Z,5.19
2019-02-25T07:52:40.718Z,5.20
2019-02-25T07:53:40.972Z,5.34
2019-02-25T07:54:41.243Z,5.34
2019-02-25T07:55:41.479Z,5.34
2019-02-25T07:56:41.759Z,5.43
2019-02-25T07:57:41.976Z,5.44
2019-02-25T07:58:42.265Z,5.47
2019-02-25T07:59:42.508Z,5.51
2019-02-25T08:00:42.748Z,5.52
2019-02-25T08:01:43.019Z,5.58
2019-02-25T08:02:43.261Z,5.61
2019-02-25T08:03:43.509Z,5.56
2019-02-25T08:04:43.788Z,5.69
2019-02-25T08:05:44.028Z,5.70
2019-02-25T08:06:44.343Z,5.72
2019-02-25T08:07:44.633Z,5.70
2019-02-25T08:08:44.801Z,5.76
2019-02-25T08:09:45.066Z,5.81
2019-02-25T08:10:45.304Z,5.83
2019-02-25T08:11:45.587Z,5.88
2019-02-25T08:12:45.822Z,5.92
2019-02-25T08:13:46.047Z,5.90
2019-02-25T08:14:46.325Z,5.92
2019-02-25T08:15:46.718Z,5.95
2019-02-25T08:16:46.843Z,5.95
2019-02-25T08:17:47.094Z,6.05
2019-02-25T08:18:47.320Z,6.06
2019-02-25T08:19:47.615Z,6.02
2019-02-25T08:20:47.858Z,6.06
2019-02-25T08:21:48.101Z,6.06
2019-02-25T08:22:48.386Z,6.12
2019-02-25T08:23:48.689Z,6.15
2019-02-25T08:24:48.886Z,6.12
2019-02-25T08:25:49.123Z,6.13
2019-02-25T08:26:49.403Z,6.19
2019-02-25T08:27:49.681Z,6.34
2019-02-25T08:28:49.882Z,6.31
2019-02-25T08:29:50.376Z,6.38
2019-02-25T08:30:50.375Z,6.31
2019-02-25T08:31:50.710Z,6.38
2019-02-25T08:32:50.907Z,6.28
2019-02-25T08:33:51.137Z,6.36
2019-02-25T08:34:51.409Z,6.32
2019-02-25T08:35:52.365Z,6.43
2019-02-25T08:36:51.892Z,6.39
2019-02-25T08:37:52.182Z,6.50
2019-02-25T08:38:52.408Z,6.47
2019-02-25T08:39:52.871Z,6.54
2019-02-25T08:40:52.930Z,6.64
2019-02-25T08:41:53.179Z,6.67
2019-02-25T08:42:53.439Z,6.56
2019-02-25T08:43:53.677Z,6.59
2019-02-25T08:44:53.947Z,6.62
2019-02-25T08:45:54.186Z,6.64
2019-02-25T08:46:54.448Z,6.54
2019-02-25T08:47:54.867Z,6.64
2019-02-25T08:48:55.366Z,6.75
2019-02-25T08:49:55.369Z,6.64
2019-02-25T08:50:56.202Z,6.82
2019-02-25T08:51:55.703Z,6.82
2019-02-25T08:52:56.370Z,6.77
2019-02-25T08:53:56.232Z,6.90
2019-02-25T08:54:56.501Z,6.83
2019-02-25T08:55:58.244Z,6.92
2019-02-25T08:56:57.131Z,6.89
2019-02-25T08:57:57.242Z,7.01
2019-02-25T08:58:57.512Z,7.00
2019-02-25T08:59:57.775Z,7.05
2019-02-25T09:00:58.014Z,7.05
2019-02-25T09:01:58.860Z,7.13
2019-02-25T09:02:58.870Z,7.22
2019-02-25T09:03:58.764Z,7.23
2019-02-25T09:04:59.134Z,7.31
2019-02-25T09:05:59.296Z,7.31
2019-02-25T09:06:59.870Z,7.23
2019-02-25T09:07:59.835Z,7.32
2019-02-25T09:09:00.043Z,7.39
2019-02-25T09:10:00.385Z,7.47
2019-02-25T09:11:00.567Z,7.46
2019-02-25T09:12:00.847Z,7.48
2019-02-25T09:13:01.129Z,7.43
2019-02-25T09:14:01.321Z,7.53
2019-02-25T09:15:01.576Z,7.58
2019-02-25T09:16:01.811Z,7.64
2019-02-25T09:17:02.070Z,7.56
2019-02-25T09:18:02.339Z,7.64
2019-02-25T09:19:02.879Z,7.64
2019-02-25T09:20:02.835Z,7.67
2019-02-25T09:21:03.104Z,7.67
2019-02-25T09:22:03.393Z,7.66
2019-02-25T09:23:04.339Z,7.78
2019-02-25T09:24:03.913Z,7.67
2019-02-25T09:25:04.147Z,7.80
2019-02-25T09:26:04.422Z,7.83
2019-02-25T09:27:05.377Z,7.78
2019-02-25T09:28:05.840Z,7.75
2019-02-25T09:29:05.233Z,7.88
2019-02-25T09:30:05.873Z,7.84
2019-02-25T09:31:06.381Z,7.88
2019-02-25T09:32:05.958Z,7.91
2019-02-25T09:33:06.334Z,8.05
2019-02-25T09:34:06.492Z,8.01
2019-02-25T09:35:06.746Z,8.03
2019-02-25T09:36:07.007Z,8.21
2019-02-25T09:37:07.985Z,8.13
2019-02-25T09:38:07.612Z,8.21
2019-02-25T09:39:07.769Z,8.20
2019-02-25T09:40:07.998Z,8.42
2019-02-25T09:41:08.269Z,8.36
2019-02-25T09:42:08.506Z,8.46
2019-02-25T09:43:08.786Z,8.54
2019-02-25T09:44:09.017Z,8.52
2019-02-25T09:45:09.284Z,8.45
2019-02-25T09:46:09.611Z,8.50
2019-02-25T09:47:09.783Z,8.54
2019-02-25T09:48:10.049Z,8.50
2019-02-25T09:49:10.275Z,8.57
2019-02-25T09:50:10.556Z,8.54
2019-02-25T09:51:11.380Z,8.57
2019-02-25T09:52:11.044Z,8.61
2019-02-25T09:53:11.333Z,8.69
2019-02-25T09:54:11.632Z,8.79
2019-02-25T09:55:11.804Z,8.78
2019-02-25T09:56:12.085Z,8.77
2019-02-25T09:57:12.326Z,8.87
2019-02-25T09:58:12.594Z,8.86
2019-02-25T09:59:12.830Z,9.00
2019-02-25T10:00:13.087Z,8.99
2019-02-25T10:01:13.338Z,9.15
2019-02-25T10:02:13.644Z,9.11
2019-02-25T10:03:13.862Z,9.13
2019-02-25T10:04:14.106Z,9.27
2019-02-25T10:05:14.382Z,9.30
2019-02-25T10:06:14.612Z,9.27
2019-02-25T10:07:15.077Z,9.36
2019-02-25T10:08:15.392Z,9.39
2019-02-25T10:09:15.609Z,9.37
2019-02-25T10:10:15.883Z,9.44
2019-02-25T10:11:16.241Z,9.37
2019-02-25T10:12:16.371Z,9.37
2019-02-25T10:13:16.664Z,9.33
2019-02-25T10:14:16.888Z,9.37
2019-02-25T10:15:17.170Z,9.24
2019-02-25T10:16:17.413Z,9.36
2019-02-25T10:17:23.464Z,9.39
2019-02-25T10:18:18.909Z,9.40
2019-02-25T10:19:18.458Z,9.45
2019-02-25T10:20:18.411Z,9.56
2019-02-25T10:21:18.664Z,9.49
2019-02-25T10:22:18.880Z,9.56
2019-02-25T10:23:19.187Z,9.56
2019-02-25T10:24:19.427Z,9.66
2019-02-25T10:25:19.680Z,9.63
2019-02-25T10:26:19.955Z,9.55
2019-02-25T10:27:20.257Z,9.70
2019-02-25T10:28:20.438Z,9.55
2019-02-25T10:29:20.682Z,9.70
2019-02-25T10:30:20.935Z,9.72
2019-02-25T10:31:21.213Z,9.74
2019-02-25T10:32:23.234Z,9.81
2019-02-25T10:33:21.712Z,9.85
2019-02-25T10:34:23.934Z,9.87
2019-02-25T10:35:22.251Z,9.84
2019-02-25T10:36:22.487Z,9.95
2019-02-25T10:37:22.711Z,9.94
2019-02-25T10:38:22.987Z,9.99
2019-02-25T10:39:23.225Z,10.06
2019-02-25T10:40:24.533Z,10.09
2019-02-25T10:41:25.526Z,10.10
2019-02-25T10:42:23.963Z,10.15
2019-02-25T10:43:25.675Z,10.18
2019-02-25T10:44:24.508Z,10.31
2019-02-25T10:45:24.749Z,10.36
2019-02-25T10:46:25.032Z,10.42
2019-02-25T10:47:25.276Z,10.41
2019-02-25T10:48:25.875Z,10.49
2019-02-25T10:49:26.673Z,10.43
2019-02-25T10:50:26.036Z,10.43
2019-02-25T10:51:26.326Z,10.43
2019-02-25T10:52:26.595Z,10.42
2019-02-25T10:53:26.829Z,10.48
2019-02-25T10:54:27.083Z,10.33
2019-02-25T10:55:27.315Z,10.48
2019-02-25T10:56:27.575Z,10.53
2019-02-25T10:57:29.172Z,10.59
2019-02-25T10:58:29.116Z,10.59
2019-02-25T10:59:29.841Z,10.68
2019-02-25T11:00:28.726Z,10.65
2019-02-25T11:01:28.855Z,10.67
2019-02-25T11:02:29.097Z,10.72
2019-02-25T11:03:29.373Z,10.72
2019-02-25T11:04:29.647Z,10.83
2019-02-25T11:05:30.549Z,10.76
2019-02-25T11:06:32.075Z,10.69
2019-02-25T11:07:30.831Z,10.82
2019-02-25T11:08:30.703Z,10.77
2019-02-25T11:09:30.898Z,10.80
2019-02-25T11:10:31.138Z,10.82
2019-02-25T11:11:31.406Z,10.94
2019-02-25T11:12:32.077Z,10.97
2019-02-25T11:13:33.945Z,10.86
2019-02-25T11:14:33.346Z,10.98
2019-02-25T11:15:32.403Z,10.97
2019-02-25T11:16:32.716Z,10.97
2019-02-25T11:17:32.891Z,10.95
2019-02-25T11:18:33.165Z,10.95
2019-02-25T11:19:33.405Z,11.04
2019-02-25T11:20:35.099Z,11.02
2019-02-25T11:21:35.256Z,11.01
2019-02-25T11:22:34.159Z,11.10
2019-02-25T11:23:34.422Z,11.12
2019-02-25T11:24:34.727Z,11.18
2019-02-25T11:25:34.898Z,11.10
2019-02-25T11:26:35.314Z,11.16
2019-02-25T11:27:37.398Z,11.25
2019-02-25T11:28:36.609Z,11.23
2019-02-25T11:29:37.864Z,11.22
2019-02-25T11:30:36.159Z,11.18
2019-02-25T11:31:36.460Z,11.26
2019-02-25T11:32:36.727Z,11.18
2019-02-25T11:33:37.064Z,11.22
2019-02-25T11:34:37.580Z,11.31
2019-02-25T11:35:38.927Z,11.37
2019-02-25T11:36:37.743Z,11.31
2019-02-25T11:37:37.988Z,11.37
2019-02-25T11:38:38.254Z,11.40
2019-02-25T11:39:38.499Z,11.51
2019-02-25T11:40:38.735Z,11.53
2019-02-25T11:41:40.878Z,11.52
2019-02-25T11:42:39.235Z,11.58
2019-02-25T11:43:39.508Z,11.58
2019-02-25T11:44:40.008Z,11.52
2019-02-25T11:45:40.012Z,11.63
2019-02-25T11:46:40.244Z,11.74
2019-02-25T11:47:40.526Z,11.70
2019-02-25T11:48:40.806Z,11.78
2019-02-25T11:49:41.139Z,11.74
2019-02-25T11:50:41.284Z,11.74
2019-02-25T11:51:41.529Z,11.83
2019-02-25T11:52:41.832Z,11.74
2019-02-25T11:53:42.085Z,11.88
2019-02-25T11:54:42.343Z,11.86
2019-02-25T11:55:42.587Z,11.85
2019-02-25T11:56:42.859Z,11.89
2019-02-25T11:57:43.133Z,11.95
2019-02-25T11:58:43.349Z,12.12
2019-02-25T11:59:43.623Z,12.17
2019-02-25T12:00:43.861Z,12.18
2019-02-25T12:01:44.120Z,12.23
2019-02-25T12:02:44.377Z,12.21
2019-02-25T12:03:44.609Z,12.26
2019-02-25T12:04:44.871Z,12.25
2019-02-25T12:05:45.187Z,12.28
2019-02-25T12:06:45.408Z,12.35
2019-02-25T12:07:45.659Z,12.35
2019-02-25T12:08:45.900Z,12.39
2019-02-25T12:09:46.151Z,12.36
2019-02-25T12:10:46.402Z,12.37
2019-02-25T12:11:46.669Z,12.36
2019-02-25T12:12:46.957Z,12.44
2019-02-25T12:13:47.205Z,12.45
2019-02-25T12:14:47.514Z,12.53
2019-02-25T12:15:47.680Z,12.57
2019-02-25T12:16:47.933Z,12.62
2019-02-25T12:17:48.221Z,12.72
2019-02-25T12:18:48.443Z,12.62
2019-02-25T12:19:48.711Z,12.72
2019-02-25T12:20:48.931Z,12.72
2019-02-25T12:21:49.199Z,12.76
2019-02-25T12:22:49.639Z,12.86
2019-02-25T12:23:49.709Z,12.78
2019-02-25T12:24:49.984Z,12.76
2019-02-25T12:25:50.234Z,12.75
2019-02-25T12:26:50.473Z,12.86
2019-02-25T12:27:50.749Z,12.87
2019-02-25T12:28:50.985Z,12.86
2019-02-25T12:29:51.256Z,12.94
2019-02-25T12:30:51.538Z,12.93
2019-02-25T12:31:51.723Z,12.99
2019-02-25T12:32:52.006Z,13.05
2019-02-25T12:33:52.243Z,13.01
2019-02-25T12:34:52.509Z,13.06
2019-02-25T12:35:52.749Z,13.01
2019-02-25T12:36:52.983Z,12.98
2019-02-25T12:37:53.280Z,12.95
2019-02-25T12:38:53.588Z,12.98
2019-02-25T12:39:53.774Z,12.95
2019-02-25T12:40:54.010Z,13.02
2019-02-25T12:41:54.272Z,13.11
2019-02-25T12:42:54.536Z,13.11
2019-02-25T12:43:54.758Z,13.13
2019-02-25T12:44:55.025Z,13.20
2019-02-25T12:45:55.282Z,13.21
2019-02-25T12:46:55.567Z,13.26
2019-02-25T12:47:55.807Z,13.06
2019-02-25T12:48:56.035Z,13.21
2019-02-25T12:49:56.296Z,13.23
2019-02-25T12:50:56.561Z,13.20
2019-02-25T12:51:56.813Z,13.13
2019-02-25T12:52:57.103Z,13.20
2019-02-25T12:53:57.322Z,13.31
2019-02-25T12:54:57.596Z,13.20
2019-02-25T12:55:57.939Z,13.23
2019-02-25T12:56:58.093Z,13.23
2019-02-25T12:57:58.365Z,13.20
2019-02-25T12:58:58.607Z,13.11
2019-02-25T12:59:58.855Z,13.08
2019-02-25T13:00:59.125Z,13.16
2019-02-25T13:01:59.359Z,13.11
2019-02-25T13:02:59.629Z,13.20
2019-02-25T13:03:59.968Z,13.19
2019-02-25T13:05:00.235Z,13.26
2019-02-25T13:06:01.459Z,13.28
2019-02-25T13:07:00.654Z,13.27
2019-02-25T13:08:00.937Z,13.21
2019-02-25T13:09:01.158Z,13.16
2019-02-25T13:10:01.415Z,13.19
2019-02-25T13:11:01.665Z,13.20
2019-02-25T13:12:02.024Z,13.19
2019-02-25T13:13:02.196Z,13.24
2019-02-25T13:14:02.412Z,13.11
2019-02-25T13:15:02.685Z,13.06
2019-02-25T13:16:02.921Z,13.12
2019-02-25T13:17:03.156Z,13.20